Maldives Meteorological Service

TAFS

Station TAF
VRMM
VRMM 301100Z 3012/3118 32006KT 9999 FEW018CB=
VRMH
VRMH 301100Z 3012/3112 33006KT 9999 FEW019=
VRMK
VRMK 301100Z 3012/3112 29005KT 9999 FEW018CB=
VRMT
VRMT 301100Z 3012/3112 32007KT 9999 FEW018 TEMPO 3012/3018 FEW018CB=
VRMG
VRMG 301100Z 3012/3118 33005KT 9999 FEW018 TEMPO 3012/3018 FEW018CB=